sensor_id;sensor_type;location;lat;lon;timestamp;P1;durP1;ratioP1;P2;durP2;ratioP2
20649;SDS011;10484;48.736;9.332;2023-02-26T00:01:22;3.47;;;1.13;;
20649;SDS011;10484;48.736;9.332;2023-02-26T00:03:50;1.70;;;1.02;;
20649;SDS011;10484;48.736;9.332;2023-02-26T00:06:16;3.13;;;1.50;;
20649;SDS011;10484;48.736;9.332;2023-02-26T00:08:43;2.33;;;1.60;;
20649;SDS011;10484;48.736;9.332;2023-02-26T00:11:09;3.60;;;1.30;;
20649;SDS011;10484;48.736;9.332;2023-02-26T00:13:36;2.15;;;1.35;;
20649;SDS011;10484;48.736;9.332;2023-02-26T00:16:03;1.90;;;1.17;;
20649;SDS011;10484;48.736;9.332;2023-02-26T00:18:37;2.03;;;1.20;;
20649;SDS011;10484;48.736;9.332;2023-02-26T00:21:03;2.20;;;1.63;;
20649;SDS011;10484;48.736;9.332;2023-02-26T00:23:29;1.77;;;1.53;;
20649;SDS011;10484;48.736;9.332;2023-02-26T00:25:56;5.63;;;1.30;;
20649;SDS011;10484;48.736;9.332;2023-02-26T00:28:22;2.40;;;1.45;;
20649;SDS011;10484;48.736;9.332;2023-02-26T00:30:48;1.83;;;1.07;;
20649;SDS011;10484;48.736;9.332;2023-02-26T00:33:14;2.00;;;1.80;;
20649;SDS011;10484;48.736;9.332;2023-02-26T00:35:40;2.20;;;1.43;;
20649;SDS011;10484;48.736;9.332;2023-02-26T00:38:07;2.50;;;1.30;;
20649;SDS011;10484;48.736;9.332;2023-02-26T00:43:15;1.52;;;1.30;;
20649;SDS011;10484;48.736;9.332;2023-02-26T00:45:44;2.30;;;1.20;;
20649;SDS011;10484;48.736;9.332;2023-02-26T00:51:13;4.78;;;1.63;;
20649;SDS011;10484;48.736;9.332;2023-02-26T00:54:05;2.80;;;1.40;;
20649;SDS011;10484;48.736;9.332;2023-02-26T00:56:37;2.47;;;1.80;;
20649;SDS011;10484;48.736;9.332;2023-02-26T00:59:02;2.40;;;1.40;;
20649;SDS011;10484;48.736;9.332;2023-02-26T01:01:28;3.10;;;2.00;;
20649;SDS011;10484;48.736;9.332;2023-02-26T01:03:54;2.80;;;1.67;;
20649;SDS011;10484;48.736;9.332;2023-02-26T01:06:20;2.88;;;1.45;;
20649;SDS011;10484;48.736;9.332;2023-02-26T01:11:39;1.60;;;1.50;;
20649;SDS011;10484;48.736;9.332;2023-02-26T01:14:05;4.07;;;2.10;;
20649;SDS011;10484;48.736;9.332;2023-02-26T01:16:33;4.35;;;1.80;;
20649;SDS011;10484;48.736;9.332;2023-02-26T01:19:11;2.55;;;1.50;;
20649;SDS011;10484;48.736;9.332;2023-02-26T01:21:43;3.08;;;1.60;;
20649;SDS011;10484;48.736;9.332;2023-02-26T01:24:13;4.13;;;1.50;;
20649;SDS011;10484;48.736;9.332;2023-02-26T01:26:40;1.50;;;1.30;;
20649;SDS011;10484;48.736;9.332;2023-02-26T01:29:06;3.67;;;1.50;;
20649;SDS011;10484;48.736;9.332;2023-02-26T01:31:37;2.17;;;1.43;;
20649;SDS011;10484;48.736;9.332;2023-02-26T01:34:22;3.88;;;1.35;;
20649;SDS011;10484;48.736;9.332;2023-02-26T01:37:20;3.55;;;1.60;;
20649;SDS011;10484;48.736;9.332;2023-02-26T01:43:01;1.50;;;1.40;;
20649;SDS011;10484;48.736;9.332;2023-02-26T01:45:34;1.58;;;1.30;;
20649;SDS011;10484;48.736;9.332;2023-02-26T01:48:17;2.22;;;1.25;;
20649;SDS011;10484;48.736;9.332;2023-02-26T01:51:05;6.85;;;1.60;;
20649;SDS011;10484;48.736;9.332;2023-02-26T01:53:31;2.53;;;1.50;;
20649;SDS011;10484;48.736;9.332;2023-02-26T01:56:00;2.07;;;1.20;;
20649;SDS011;10484;48.736;9.332;2023-02-26T01:58:31;1.85;;;1.42;;
20649;SDS011;10484;48.736;9.332;2023-02-26T02:00:59;2.60;;;1.77;;
20649;SDS011;10484;48.736;9.332;2023-02-26T02:03:26;2.63;;;1.70;;
20649;SDS011;10484;48.736;9.332;2023-02-26T02:05:55;1.80;;;1.05;;
20649;SDS011;10484;48.736;9.332;2023-02-26T02:08:27;1.60;;;1.48;;
20649;SDS011;10484;48.736;9.332;2023-02-26T02:10:54;3.92;;;1.65;;
20649;SDS011;10484;48.736;9.332;2023-02-26T02:13:40;4.40;;;1.53;;
20649;SDS011;10484;48.736;9.332;2023-02-26T02:16:15;3.00;;;1.40;;
20649;SDS011;10484;48.736;9.332;2023-02-26T02:18:58;1.92;;;1.25;;
20649;SDS011;10484;48.736;9.332;2023-02-26T02:22:24;3.08;;;1.58;;
20649;SDS011;10484;48.736;9.332;2023-02-26T02:24:33;2.28;;;1.92;;
20649;SDS011;10484;48.736;9.332;2023-02-26T02:27:30;1.92;;;1.33;;
20649;SDS011;10484;48.736;9.332;2023-02-26T02:30:02;2.22;;;1.30;;
20649;SDS011;10484;48.736;9.332;2023-02-26T02:32:43;3.90;;;1.60;;
20649;SDS011;10484;48.736;9.332;2023-02-26T02:35:25;3.08;;;1.88;;
20649;SDS011;10484;48.736;9.332;2023-02-26T02:37:58;2.10;;;1.50;;
20649;SDS011;10484;48.736;9.332;2023-02-26T02:40:34;1.90;;;1.50;;
20649;SDS011;10484;48.736;9.332;2023-02-26T02:43:08;2.05;;;1.00;;
20649;SDS011;10484;48.736;9.332;2023-02-26T02:45:40;1.55;;;1.40;;
20649;SDS011;10484;48.736;9.332;2023-02-26T02:48:22;2.95;;;2.35;;
20649;SDS011;10484;48.736;9.332;2023-02-26T02:53:32;2.20;;;1.50;;
20649;SDS011;10484;48.736;9.332;2023-02-26T02:56:03;6.50;;;1.75;;
20649;SDS011;10484;48.736;9.332;2023-02-26T02:58:41;2.35;;;1.50;;
20649;SDS011;10484;48.736;9.332;2023-02-26T03:01:11;2.15;;;1.40;;
20649;SDS011;10484;48.736;9.332;2023-02-26T03:06:26;2.38;;;1.45;;
20649;SDS011;10484;48.736;9.332;2023-02-26T03:08:52;3.90;;;2.63;;
20649;SDS011;10484;48.736;9.332;2023-02-26T03:11:18;3.05;;;2.10;;
20649;SDS011;10484;48.736;9.332;2023-02-26T03:13:44;2.05;;;1.50;;
20649;SDS011;10484;48.736;9.332;2023-02-26T03:16:18;5.28;;;1.73;;
20649;SDS011;10484;48.736;9.332;2023-02-26T03:19:23;1.23;;;1.13;;
20649;SDS011;10484;48.736;9.332;2023-02-26T03:27:12;3.17;;;1.80;;
20649;SDS011;10484;48.736;9.332;2023-02-26T03:37:52;3.25;;;1.55;;
20649;SDS011;10484;48.736;9.332;2023-02-26T03:40:25;3.20;;;1.85;;
20649;SDS011;10484;48.736;9.332;2023-02-26T03:42:56;2.35;;;1.50;;
20649;SDS011;10484;48.736;9.332;2023-02-26T03:45:38;2.13;;;1.80;;
20649;SDS011;10484;48.736;9.332;2023-02-26T03:48:07;2.67;;;1.80;;
20649;SDS011;10484;48.736;9.332;2023-02-26T03:50:38;3.10;;;1.75;;
20649;SDS011;10484;48.736;9.332;2023-02-26T03:53:13;6.32;;;1.50;;
20649;SDS011;10484;48.736;9.332;2023-02-26T03:55:46;2.65;;;1.77;;
20649;SDS011;10484;48.736;9.332;2023-02-26T03:58:22;3.00;;;1.60;;
20649;SDS011;10484;48.736;9.332;2023-02-26T04:00:50;1.97;;;1.30;;
20649;SDS011;10484;48.736;9.332;2023-02-26T04:03:24;1.70;;;1.08;;
20649;SDS011;10484;48.736;9.332;2023-02-26T04:05:56;2.03;;;1.48;;
20649;SDS011;10484;48.736;9.332;2023-02-26T04:08:23;2.47;;;1.83;;
20649;SDS011;10484;48.736;9.332;2023-02-26T04:10:57;2.30;;;1.55;;
20649;SDS011;10484;48.736;9.332;2023-02-26T04:13:24;4.35;;;1.52;;
20649;SDS011;10484;48.736;9.332;2023-02-26T04:15:50;1.90;;;1.20;;
20649;SDS011;10484;48.736;9.332;2023-02-26T04:18:16;2.60;;;1.90;;
20649;SDS011;10484;48.736;9.332;2023-02-26T04:20:41;2.60;;;1.17;;
20649;SDS011;10484;48.736;9.332;2023-02-26T04:23:07;2.50;;;1.43;;
20649;SDS011;10484;48.736;9.332;2023-02-26T04:25:32;1.50;;;1.40;;
20649;SDS011;10484;48.736;9.332;2023-02-26T04:27:58;2.77;;;1.53;;
20649;SDS011;10484;48.736;9.332;2023-02-26T04:30:23;1.50;;;1.00;;
20649;SDS011;10484;48.736;9.332;2023-02-26T04:32:49;1.77;;;1.53;;
20649;SDS011;10484;48.736;9.332;2023-02-26T04:35:15;1.70;;;1.20;;
20649;SDS011;10484;48.736;9.332;2023-02-26T04:37:40;2.00;;;1.67;;
20649;SDS011;10484;48.736;9.332;2023-02-26T04:40:06;2.63;;;1.53;;
20649;SDS011;10484;48.736;9.332;2023-02-26T04:42:32;4.47;;;1.42;;
20649;SDS011;10484;48.736;9.332;2023-02-26T04:44:58;3.03;;;1.43;;
20649;SDS011;10484;48.736;9.332;2023-02-26T04:47:23;2.10;;;1.90;;
20649;SDS011;10484;48.736;9.332;2023-02-26T04:49:49;2.10;;;1.17;;
20649;SDS011;10484;48.736;9.332;2023-02-26T04:52:14;3.20;;;1.63;;
20649;SDS011;10484;48.736;9.332;2023-02-26T04:54:40;2.47;;;1.07;;
20649;SDS011;10484;48.736;9.332;2023-02-26T04:57:05;1.47;;;0.93;;
20649;SDS011;10484;48.736;9.332;2023-02-26T04:59:31;3.60;;;1.40;;
20649;SDS011;10484;48.736;9.332;2023-02-26T05:01:57;5.43;;;1.37;;
20649;SDS011;10484;48.736;9.332;2023-02-26T05:04:23;3.35;;;1.90;;
20649;SDS011;10484;48.736;9.332;2023-02-26T05:06:48;1.73;;;0.93;;
20649;SDS011;10484;48.736;9.332;2023-02-26T05:09:14;1.73;;;1.00;;
20649;SDS011;10484;48.736;9.332;2023-02-26T05:11:40;3.10;;;1.40;;
20649;SDS011;10484;48.736;9.332;2023-02-26T05:14:06;1.93;;;1.40;;
20649;SDS011;10484;48.736;9.332;2023-02-26T05:16:31;4.10;;;2.30;;
20649;SDS011;10484;48.736;9.332;2023-02-26T05:18:57;5.80;;;4.43;;
20649;SDS011;10484;48.736;9.332;2023-02-26T05:21:22;5.10;;;4.57;;
20649;SDS011;10484;48.736;9.332;2023-02-26T05:23:48;7.57;;;4.43;;
20649;SDS011;10484;48.736;9.332;2023-02-26T05:26:13;5.87;;;3.70;;
20649;SDS011;10484;48.736;9.332;2023-02-26T05:28:39;3.60;;;2.40;;
20649;SDS011;10484;48.736;9.332;2023-02-26T05:31:04;6.80;;;4.30;;
20649;SDS011;10484;48.736;9.332;2023-02-26T05:33:30;5.57;;;2.90;;
20649;SDS011;10484;48.736;9.332;2023-02-26T05:35:56;4.63;;;2.92;;
20649;SDS011;10484;48.736;9.332;2023-02-26T05:38:22;3.83;;;1.73;;
20649;SDS011;10484;48.736;9.332;2023-02-26T05:40:48;3.07;;;1.83;;
20649;SDS011;10484;48.736;9.332;2023-02-26T05:43:13;2.03;;;1.83;;
20649;SDS011;10484;48.736;9.332;2023-02-26T05:45:39;3.40;;;1.80;;
20649;SDS011;10484;48.736;9.332;2023-02-26T05:48:05;2.87;;;1.60;;
20649;SDS011;10484;48.736;9.332;2023-02-26T05:50:30;3.17;;;1.93;;
20649;SDS011;10484;48.736;9.332;2023-02-26T05:52:56;4.83;;;2.63;;
20649;SDS011;10484;48.736;9.332;2023-02-26T05:55:22;1.90;;;1.43;;
20649;SDS011;10484;48.736;9.332;2023-02-26T05:57:47;2.67;;;1.60;;
20649;SDS011;10484;48.736;9.332;2023-02-26T06:00:13;2.73;;;1.70;;
20649;SDS011;10484;48.736;9.332;2023-02-26T06:02:39;1.95;;;1.50;;
20649;SDS011;10484;48.736;9.332;2023-02-26T06:05:06;3.05;;;1.67;;
20649;SDS011;10484;48.736;9.332;2023-02-26T06:07:32;3.10;;;1.20;;
20649;SDS011;10484;48.736;9.332;2023-02-26T06:09:58;5.27;;;2.03;;
20649;SDS011;10484;48.736;9.332;2023-02-26T06:12:24;3.63;;;1.83;;
20649;SDS011;10484;48.736;9.332;2023-02-26T06:14:49;2.73;;;1.70;;
20649;SDS011;10484;48.736;9.332;2023-02-26T06:17:15;2.60;;;1.97;;
20649;SDS011;10484;48.736;9.332;2023-02-26T06:19:41;3.03;;;1.60;;
20649;SDS011;10484;48.736;9.332;2023-02-26T06:22:06;5.33;;;2.20;;
20649;SDS011;10484;48.736;9.332;2023-02-26T06:24:32;2.10;;;1.23;;
20649;SDS011;10484;48.736;9.332;2023-02-26T06:26:57;4.00;;;1.40;;
20649;SDS011;10484;48.736;9.332;2023-02-26T06:29:23;4.00;;;2.20;;
20649;SDS011;10484;48.736;9.332;2023-02-26T06:31:49;1.63;;;1.53;;
20649;SDS011;10484;48.736;9.332;2023-02-26T06:34:14;4.70;;;2.03;;
20649;SDS011;10484;48.736;9.332;2023-02-26T06:36:40;4.20;;;1.90;;
20649;SDS011;10484;48.736;9.332;2023-02-26T06:39:06;2.77;;;1.63;;
20649;SDS011;10484;48.736;9.332;2023-02-26T06:41:32;2.20;;;1.60;;
20649;SDS011;10484;48.736;9.332;2023-02-26T06:43:57;7.43;;;1.83;;
20649;SDS011;10484;48.736;9.332;2023-02-26T06:46:23;4.47;;;2.37;;
20649;SDS011;10484;48.736;9.332;2023-02-26T06:48:48;2.60;;;1.77;;
20649;SDS011;10484;48.736;9.332;2023-02-26T06:51:14;3.00;;;1.87;;
20649;SDS011;10484;48.736;9.332;2023-02-26T06:53:39;4.03;;;2.30;;
20649;SDS011;10484;48.736;9.332;2023-02-26T06:56:05;4.30;;;2.00;;
20649;SDS011;10484;48.736;9.332;2023-02-26T06:58:32;5.88;;;1.58;;
20649;SDS011;10484;48.736;9.332;2023-02-26T07:00:58;5.35;;;1.90;;
20649;SDS011;10484;48.736;9.332;2023-02-26T07:03:24;3.70;;;2.00;;
20649;SDS011;10484;48.736;9.332;2023-02-26T07:05:49;2.40;;;2.07;;
20649;SDS011;10484;48.736;9.332;2023-02-26T07:08:15;5.60;;;2.07;;
20649;SDS011;10484;48.736;9.332;2023-02-26T07:10:41;4.47;;;2.27;;
20649;SDS011;10484;48.736;9.332;2023-02-26T07:13:07;5.80;;;1.88;;
20649;SDS011;10484;48.736;9.332;2023-02-26T07:15:33;4.40;;;2.53;;
20649;SDS011;10484;48.736;9.332;2023-02-26T07:17:58;4.37;;;2.17;;
20649;SDS011;10484;48.736;9.332;2023-02-26T07:20:24;6.07;;;2.97;;
20649;SDS011;10484;48.736;9.332;2023-02-26T07:22:51;4.18;;;2.55;;
20649;SDS011;10484;48.736;9.332;2023-02-26T07:25:16;3.90;;;2.77;;
20649;SDS011;10484;48.736;9.332;2023-02-26T07:27:42;2.67;;;1.87;;
20649;SDS011;10484;48.736;9.332;2023-02-26T07:30:08;5.90;;;2.20;;
20649;SDS011;10484;48.736;9.332;2023-02-26T07:32:34;5.15;;;1.90;;
20649;SDS011;10484;48.736;9.332;2023-02-26T07:35:00;2.40;;;1.53;;
20649;SDS011;10484;48.736;9.332;2023-02-26T07:37:25;7.00;;;2.03;;
20649;SDS011;10484;48.736;9.332;2023-02-26T07:39:51;1.73;;;1.60;;
20649;SDS011;10484;48.736;9.332;2023-02-26T07:42:17;2.07;;;1.40;;
20649;SDS011;10484;48.736;9.332;2023-02-26T07:44:42;3.87;;;1.57;;
20649;SDS011;10484;48.736;9.332;2023-02-26T07:47:08;7.00;;;2.20;;
20649;SDS011;10484;48.736;9.332;2023-02-26T07:49:35;1.45;;;1.35;;
20649;SDS011;10484;48.736;9.332;2023-02-26T07:52:00;2.70;;;1.60;;
20649;SDS011;10484;48.736;9.332;2023-02-26T07:54:26;1.57;;;1.47;;
20649;SDS011;10484;48.736;9.332;2023-02-26T07:56:52;3.87;;;1.50;;
20649;SDS011;10484;48.736;9.332;2023-02-26T07:59:17;2.57;;;1.37;;
20649;SDS011;10484;48.736;9.332;2023-02-26T08:01:43;3.07;;;1.63;;
20649;SDS011;10484;48.736;9.332;2023-02-26T08:04:08;1.70;;;1.20;;
20649;SDS011;10484;48.736;9.332;2023-02-26T08:06:34;4.37;;;2.13;;
20649;SDS011;10484;48.736;9.332;2023-02-26T08:09:01;2.70;;;1.60;;
20649;SDS011;10484;48.736;9.332;2023-02-26T08:11:27;10.23;;;1.92;;
20649;SDS011;10484;48.736;9.332;2023-02-26T08:13:52;3.30;;;1.50;;
20649;SDS011;10484;48.736;9.332;2023-02-26T08:16:18;3.23;;;1.53;;
20649;SDS011;10484;48.736;9.332;2023-02-26T08:18:44;3.20;;;1.30;;
20649;SDS011;10484;48.736;9.332;2023-02-26T08:21:09;2.70;;;1.73;;
20649;SDS011;10484;48.736;9.332;2023-02-26T08:23:35;2.03;;;1.83;;
20649;SDS011;10484;48.736;9.332;2023-02-26T08:26:02;3.20;;;1.93;;
20649;SDS011;10484;48.736;9.332;2023-02-26T08:28:29;2.40;;;1.38;;
20649;SDS011;10484;48.736;9.332;2023-02-26T08:30:54;4.50;;;1.57;;
20649;SDS011;10484;48.736;9.332;2023-02-26T08:33:20;5.40;;;1.67;;
20649;SDS011;10484;48.736;9.332;2023-02-26T08:35:47;2.70;;;1.45;;
20649;SDS011;10484;48.736;9.332;2023-02-26T08:38:13;3.35;;;1.00;;
20649;SDS011;10484;48.736;9.332;2023-02-26T08:40:39;3.83;;;1.77;;
20649;SDS011;10484;48.736;9.332;2023-02-26T08:43:04;3.83;;;1.70;;
20649;SDS011;10484;48.736;9.332;2023-02-26T08:45:30;5.50;;;1.40;;
20649;SDS011;10484;48.736;9.332;2023-02-26T08:47:55;4.57;;;1.07;;
20649;SDS011;10484;48.736;9.332;2023-02-26T08:50:21;2.17;;;1.13;;
20649;SDS011;10484;48.736;9.332;2023-02-26T08:52:47;3.37;;;1.43;;
20649;SDS011;10484;48.736;9.332;2023-02-26T08:55:13;4.00;;;1.67;;
20649;SDS011;10484;48.736;9.332;2023-02-26T08:57:38;3.07;;;1.10;;
20649;SDS011;10484;48.736;9.332;2023-02-26T09:00:04;2.00;;;1.00;;
20649;SDS011;10484;48.736;9.332;2023-02-26T09:02:34;1.90;;;1.27;;
20649;SDS011;10484;48.736;9.332;2023-02-26T09:05:03;3.08;;;1.63;;
20649;SDS011;10484;48.736;9.332;2023-02-26T09:07:29;2.55;;;1.40;;
20649;SDS011;10484;48.736;9.332;2023-02-26T09:09:55;2.80;;;1.60;;
20649;SDS011;10484;48.736;9.332;2023-02-26T09:12:21;3.27;;;1.70;;
20649;SDS011;10484;48.736;9.332;2023-02-26T09:14:46;1.80;;;1.50;;
20649;SDS011;10484;48.736;9.332;2023-02-26T09:17:12;2.10;;;1.40;;
20649;SDS011;10484;48.736;9.332;2023-02-26T09:19:38;4.47;;;2.07;;
20649;SDS011;10484;48.736;9.332;2023-02-26T09:22:03;2.13;;;1.10;;
20649;SDS011;10484;48.736;9.332;2023-02-26T09:24:29;2.27;;;1.23;;
20649;SDS011;10484;48.736;9.332;2023-02-26T09:26:55;1.50;;;1.33;;
20649;SDS011;10484;48.736;9.332;2023-02-26T09:29:21;2.93;;;1.20;;
20649;SDS011;10484;48.736;9.332;2023-02-26T09:31:46;2.80;;;1.47;;
20649;SDS011;10484;48.736;9.332;2023-02-26T09:34:12;1.30;;;1.20;;
20649;SDS011;10484;48.736;9.332;2023-02-26T09:36:38;3.53;;;1.50;;
20649;SDS011;10484;48.736;9.332;2023-02-26T09:39:04;1.40;;;1.13;;
20649;SDS011;10484;48.736;9.332;2023-02-26T09:41:37;1.20;;;1.10;;
20649;SDS011;10484;48.736;9.332;2023-02-26T09:44:24;2.80;;;1.08;;
20649;SDS011;10484;48.736;9.332;2023-02-26T09:52:03;1.88;;;1.27;;
20649;SDS011;10484;48.736;9.332;2023-02-26T09:54:51;1.63;;;1.05;;
20649;SDS011;10484;48.736;9.332;2023-02-26T09:57:26;5.05;;;1.80;;
20649;SDS011;10484;48.736;9.332;2023-02-26T09:59:55;1.70;;;0.93;;
20649;SDS011;10484;48.736;9.332;2023-02-26T10:02:39;1.73;;;1.15;;
20649;SDS011;10484;48.736;9.332;2023-02-26T10:05:56;1.98;;;1.55;;
20649;SDS011;10484;48.736;9.332;2023-02-26T10:14:02;1.42;;;0.70;;
20649;SDS011;10484;48.736;9.332;2023-02-26T10:16:50;3.45;;;1.25;;
20649;SDS011;10484;48.736;9.332;2023-02-26T10:19:21;3.03;;;1.25;;
20649;SDS011;10484;48.736;9.332;2023-02-26T10:21:59;1.85;;;1.25;;
20649;SDS011;10484;48.736;9.332;2023-02-26T10:24:48;2.33;;;0.95;;
20649;SDS011;10484;48.736;9.332;2023-02-26T10:35:57;3.22;;;1.20;;
20649;SDS011;10484;48.736;9.332;2023-02-26T10:38:32;8.63;;;1.52;;
20649;SDS011;10484;48.736;9.332;2023-02-26T10:43:39;2.22;;;0.98;;
20649;SDS011;10484;48.736;9.332;2023-02-26T10:46:15;2.55;;;1.08;;
20649;SDS011;10484;48.736;9.332;2023-02-26T10:51:38;1.73;;;1.10;;
20649;SDS011;10484;48.736;9.332;2023-02-26T10:56:47;1.35;;;1.25;;
20649;SDS011;10484;48.736;9.332;2023-02-26T10:59:13;0.90;;;0.90;;
20649;SDS011;10484;48.736;9.332;2023-02-26T11:01:39;1.33;;;1.20;;
20649;SDS011;10484;48.736;9.332;2023-02-26T11:04:06;0.60;;;0.60;;
20649;SDS011;10484;48.736;9.332;2023-02-26T11:06:37;2.50;;;1.15;;
20649;SDS011;10484;48.736;9.332;2023-02-26T11:09:24;3.63;;;1.40;;
20649;SDS011;10484;48.736;9.332;2023-02-26T11:14:18;1.00;;;0.77;;
20649;SDS011;10484;48.736;9.332;2023-02-26T11:16:46;1.05;;;1.00;;
20649;SDS011;10484;48.736;9.332;2023-02-26T11:19:17;2.67;;;0.90;;
20649;SDS011;10484;48.736;9.332;2023-02-26T11:21:55;0.82;;;0.80;;
20649;SDS011;10484;48.736;9.332;2023-02-26T11:24:30;1.70;;;1.00;;
20649;SDS011;10484;48.736;9.332;2023-02-26T11:27:01;0.93;;;0.82;;
20649;SDS011;10484;48.736;9.332;2023-02-26T11:29:32;1.85;;;1.30;;
20649;SDS011;10484;48.736;9.332;2023-02-26T11:32:02;6.15;;;1.52;;
20649;SDS011;10484;48.736;9.332;2023-02-26T11:34:29;1.23;;;1.02;;
20649;SDS011;10484;48.736;9.332;2023-02-26T11:36:56;2.67;;;1.10;;
20649;SDS011;10484;48.736;9.332;2023-02-26T11:39:24;3.17;;;1.27;;
20649;SDS011;10484;48.736;9.332;2023-02-26T11:41:57;1.05;;;0.95;;
20649;SDS011;10484;48.736;9.332;2023-02-26T11:47:12;1.70;;;1.30;;
20649;SDS011;10484;48.736;9.332;2023-02-26T11:49:44;2.85;;;1.00;;
20649;SDS011;10484;48.736;9.332;2023-02-26T11:52:34;0.90;;;0.80;;
20649;SDS011;10484;48.736;9.332;2023-02-26T11:55:05;1.80;;;1.00;;
20649;SDS011;10484;48.736;9.332;2023-02-26T11:57:49;1.00;;;0.90;;
20649;SDS011;10484;48.736;9.332;2023-02-26T12:00:22;1.80;;;1.33;;
20649;SDS011;10484;48.736;9.332;2023-02-26T12:02:49;1.33;;;0.98;;
20649;SDS011;10484;48.736;9.332;2023-02-26T12:05:15;1.03;;;0.60;;
20649;SDS011;10484;48.736;9.332;2023-02-26T12:07:42;1.20;;;0.93;;
20649;SDS011;10484;48.736;9.332;2023-02-26T12:10:15;0.80;;;0.70;;
20649;SDS011;10484;48.736;9.332;2023-02-26T12:12:47;1.40;;;1.20;;
20649;SDS011;10484;48.736;9.332;2023-02-26T12:15:45;1.90;;;1.40;;
20649;SDS011;10484;48.736;9.332;2023-02-26T12:21:14;0.85;;;0.70;;
20649;SDS011;10484;48.736;9.332;2023-02-26T12:24:06;1.13;;;0.70;;
20649;SDS011;10484;48.736;9.332;2023-02-26T12:26:55;1.00;;;0.90;;
20649;SDS011;10484;48.736;9.332;2023-02-26T12:29:42;3.85;;;0.80;;
20649;SDS011;10484;48.736;9.332;2023-02-26T12:32:27;2.08;;;1.00;;
20649;SDS011;10484;48.736;9.332;2023-02-26T12:38:01;1.60;;;0.73;;
20649;SDS011;10484;48.736;9.332;2023-02-26T12:44:07;1.05;;;0.70;;
20649;SDS011;10484;48.736;9.332;2023-02-26T12:52:38;1.95;;;1.30;;
20649;SDS011;10484;48.736;9.332;2023-02-26T13:12:00;1.25;;;0.80;;
20649;SDS011;10484;48.736;9.332;2023-02-26T13:19:48;1.90;;;1.02;;
20649;SDS011;10484;48.736;9.332;2023-02-26T13:22:34;0.80;;;0.70;;
20649;SDS011;10484;48.736;9.332;2023-02-26T13:25:29;0.65;;;0.60;;
20649;SDS011;10484;48.736;9.332;2023-02-26T13:28:04;1.25;;;0.80;;
20649;SDS011;10484;48.736;9.332;2023-02-26T13:30:42;1.10;;;0.60;;
20649;SDS011;10484;48.736;9.332;2023-02-26T13:33:15;0.63;;;0.63;;
20649;SDS011;10484;48.736;9.332;2023-02-26T13:35:44;1.02;;;0.68;;
20649;SDS011;10484;48.736;9.332;2023-02-26T13:38:14;0.70;;;0.65;;
20649;SDS011;10484;48.736;9.332;2023-02-26T13:46:33;0.93;;;0.73;;
20649;SDS011;10484;48.736;9.332;2023-02-26T13:51:53;0.68;;;0.63;;
20649;SDS011;10484;48.736;9.332;2023-02-26T13:56:51;0.80;;;0.50;;
20649;SDS011;10484;48.736;9.332;2023-02-26T13:59:36;0.88;;;0.57;;
20649;SDS011;10484;48.736;9.332;2023-02-26T14:11:04;0.60;;;0.50;;
20649;SDS011;10484;48.736;9.332;2023-02-26T14:16:40;1.30;;;0.70;;
20649;SDS011;10484;48.736;9.332;2023-02-26T14:21:50;0.50;;;0.40;;
20649;SDS011;10484;48.736;9.332;2023-02-26T14:24:28;0.70;;;0.50;;
20649;SDS011;10484;48.736;9.332;2023-02-26T14:27:06;1.50;;;0.70;;
20649;SDS011;10484;48.736;9.332;2023-02-26T14:29:39;1.02;;;0.63;;
20649;SDS011;10484;48.736;9.332;2023-02-26T14:35:15;0.50;;;0.35;;
20649;SDS011;10484;48.736;9.332;2023-02-26T14:37:52;0.50;;;0.43;;
20649;SDS011;10484;48.736;9.332;2023-02-26T14:40:27;0.40;;;0.40;;
20649;SDS011;10484;48.736;9.332;2023-02-26T14:42:59;0.77;;;0.57;;
20649;SDS011;10484;48.736;9.332;2023-02-26T14:48:03;0.73;;;0.55;;
20649;SDS011;10484;48.736;9.332;2023-02-26T14:56:27;1.67;;;0.75;;
20649;SDS011;10484;48.736;9.332;2023-02-26T15:01:49;2.13;;;0.73;;
20649;SDS011;10484;48.736;9.332;2023-02-26T15:26:04;1.23;;;0.50;;
20649;SDS011;10484;48.736;9.332;2023-02-26T15:28:32;2.55;;;0.65;;
20649;SDS011;10484;48.736;9.332;2023-02-26T15:31:01;1.70;;;0.45;;
20649;SDS011;10484;48.736;9.332;2023-02-26T15:33:30;0.80;;;0.40;;
20649;SDS011;10484;48.736;9.332;2023-02-26T15:35:57;1.50;;;0.60;;
20649;SDS011;10484;48.736;9.332;2023-02-26T15:38:23;0.63;;;0.47;;
20649;SDS011;10484;48.736;9.332;2023-02-26T15:40:50;1.50;;;0.55;;
20649;SDS011;10484;48.736;9.332;2023-02-26T15:43:23;0.70;;;0.50;;
20649;SDS011;10484;48.736;9.332;2023-02-26T15:45:52;1.90;;;0.60;;
20649;SDS011;10484;48.736;9.332;2023-02-26T15:48:21;1.02;;;0.50;;
20649;SDS011;10484;48.736;9.332;2023-02-26T15:50:53;1.88;;;0.60;;
20649;SDS011;10484;48.736;9.332;2023-02-26T15:53:26;0.70;;;0.43;;
20649;SDS011;10484;48.736;9.332;2023-02-26T15:56:05;1.48;;;0.82;;
20649;SDS011;10484;48.736;9.332;2023-02-26T15:58:41;0.88;;;0.52;;
20649;SDS011;10484;48.736;9.332;2023-02-26T16:01:14;0.90;;;0.90;;
20649;SDS011;10484;48.736;9.332;2023-02-26T16:03:41;0.95;;;0.52;;
20649;SDS011;10484;48.736;9.332;2023-02-26T16:06:23;0.77;;;0.40;;
20649;SDS011;10484;48.736;9.332;2023-02-26T16:08:52;1.60;;;0.70;;
20649;SDS011;10484;48.736;9.332;2023-02-26T16:11:17;1.30;;;0.60;;
20649;SDS011;10484;48.736;9.332;2023-02-26T16:13:45;0.60;;;0.50;;
20649;SDS011;10484;48.736;9.332;2023-02-26T16:16:23;0.93;;;0.55;;
20649;SDS011;10484;48.736;9.332;2023-02-26T16:18:52;1.92;;;1.67;;
20649;SDS011;10484;48.736;9.332;2023-02-26T16:21:26;1.00;;;0.90;;
20649;SDS011;10484;48.736;9.332;2023-02-26T16:23:55;1.05;;;0.52;;
20649;SDS011;10484;48.736;9.332;2023-02-26T16:26:41;1.30;;;0.70;;
20649;SDS011;10484;48.736;9.332;2023-02-26T16:29:14;0.88;;;0.50;;
20649;SDS011;10484;48.736;9.332;2023-02-26T16:32:08;0.77;;;0.60;;
20649;SDS011;10484;48.736;9.332;2023-02-26T16:34:40;2.50;;;0.80;;
20649;SDS011;10484;48.736;9.332;2023-02-26T16:39:51;3.47;;;1.70;;
20649;SDS011;10484;48.736;9.332;2023-02-26T16:42:30;1.50;;;1.00;;
20649;SDS011;10484;48.736;9.332;2023-02-26T16:47:59;1.77;;;0.57;;
20649;SDS011;10484;48.736;9.332;2023-02-26T16:50:27;1.33;;;0.77;;
20649;SDS011;10484;48.736;9.332;2023-02-26T16:52:57;3.90;;;0.95;;
20649;SDS011;10484;48.736;9.332;2023-02-26T16:55:30;1.27;;;0.70;;
20649;SDS011;10484;48.736;9.332;2023-02-26T16:57:59;2.95;;;0.80;;
20649;SDS011;10484;48.736;9.332;2023-02-26T17:00:28;1.17;;;0.55;;
20649;SDS011;10484;48.736;9.332;2023-02-26T17:03:08;0.60;;;0.40;;
20649;SDS011;10484;48.736;9.332;2023-02-26T17:05:38;0.90;;;0.75;;
20649;SDS011;10484;48.736;9.332;2023-02-26T17:08:17;0.68;;;0.40;;
20649;SDS011;10484;48.736;9.332;2023-02-26T17:10:46;3.17;;;1.05;;
20649;SDS011;10484;48.736;9.332;2023-02-26T17:13:22;0.70;;;0.60;;
20649;SDS011;10484;48.736;9.332;2023-02-26T17:15:50;1.55;;;0.50;;
20649;SDS011;10484;48.736;9.332;2023-02-26T17:18:18;1.00;;;0.60;;
20649;SDS011;10484;48.736;9.332;2023-02-26T17:20:44;1.38;;;0.70;;
20649;SDS011;10484;48.736;9.332;2023-02-26T17:23:10;1.65;;;0.90;;
20649;SDS011;10484;48.736;9.332;2023-02-26T17:25:42;1.88;;;1.13;;
20649;SDS011;10484;48.736;9.332;2023-02-26T17:28:12;3.40;;;2.47;;
20649;SDS011;10484;48.736;9.332;2023-02-26T17:30:42;1.45;;;1.05;;
20649;SDS011;10484;48.736;9.332;2023-02-26T17:33:08;2.30;;;0.97;;
20649;SDS011;10484;48.736;9.332;2023-02-26T17:35:37;1.45;;;0.90;;
20649;SDS011;10484;48.736;9.332;2023-02-26T17:38:03;2.03;;;1.30;;
20649;SDS011;10484;48.736;9.332;2023-02-26T17:40:31;1.13;;;0.40;;
20649;SDS011;10484;48.736;9.332;2023-02-26T17:43:02;1.20;;;0.60;;
20649;SDS011;10484;48.736;9.332;2023-02-26T17:45:29;1.35;;;0.90;;
20649;SDS011;10484;48.736;9.332;2023-02-26T17:47:55;1.00;;;0.85;;
20649;SDS011;10484;48.736;9.332;2023-02-26T17:50:34;0.90;;;0.60;;
20649;SDS011;10484;48.736;9.332;2023-02-26T17:53:06;0.60;;;0.40;;
20649;SDS011;10484;48.736;9.332;2023-02-26T17:55:33;2.00;;;1.10;;